createdAt,value
2022-12-15T00:00:29.564Z,-7.00
2022-12-15T00:03:16.078Z,-7.00
2022-12-15T00:06:02.536Z,-7.10
2022-12-15T00:08:49.347Z,-7.00
2022-12-15T00:11:36.438Z,-7.00
2022-12-15T00:14:23.327Z,-7.10
2022-12-15T00:17:09.482Z,-7.00
2022-12-15T00:19:55.785Z,-6.80
2022-12-15T00:22:42.497Z,-6.80
2022-12-15T00:25:28.827Z,-6.90
2022-12-15T00:28:16.884Z,-6.90
2022-12-15T00:31:03.103Z,-6.90
2022-12-15T00:33:49.309Z,-6.80
2022-12-15T00:36:35.645Z,-6.80
2022-12-15T00:39:04.106Z,-6.70
2022-12-15T00:41:32.023Z,-6.80
2022-12-15T00:44:00.202Z,-6.80
2022-12-15T00:46:46.868Z,-6.80
2022-12-15T00:49:33.126Z,-6.80
2022-12-15T00:52:19.274Z,-6.80
2022-12-15T00:55:05.607Z,-6.70
2022-12-15T00:57:51.700Z,-6.80
2022-12-15T01:00:39.332Z,-6.80
2022-12-15T01:03:41.675Z,-6.90
2022-12-15T01:06:35.097Z,-6.90
2022-12-15T01:09:27.583Z,-7.00
2022-12-15T01:12:13.882Z,-7.00
2022-12-15T01:15:00.504Z,-6.90
2022-12-15T01:17:47.423Z,-6.90
2022-12-15T01:20:20.713Z,-6.90
2022-12-15T01:22:55.573Z,-7.00
2022-12-15T01:25:27.616Z,-7.00
2022-12-15T01:27:55.489Z,-7.10
2022-12-15T01:30:27.539Z,-7.10
2022-12-15T01:32:55.265Z,-7.10
2022-12-15T01:35:23.153Z,-7.10
2022-12-15T01:37:50.803Z,-7.20
2022-12-15T01:40:40.367Z,-7.20
2022-12-15T01:43:32.117Z,-7.20
2022-12-15T01:46:11.099Z,-7.30
2022-12-15T01:49:15.793Z,-7.20
2022-12-15T01:51:52.460Z,-7.20
2022-12-15T01:54:41.062Z,-7.20
2022-12-15T01:57:25.654Z,-7.30
2022-12-15T02:00:04.021Z,-7.20
2022-12-15T02:02:40.411Z,-7.20
2022-12-15T02:05:10.444Z,-7.10
2022-12-15T02:07:38.314Z,-7.10
2022-12-15T02:10:10.406Z,-7.10
2022-12-15T02:13:28.860Z,-7.10
2022-12-15T02:16:32.560Z,-7.10
2022-12-15T02:20:21.713Z,-7.10
2022-12-15T02:22:57.916Z,-7.10
2022-12-15T02:26:30.329Z,-7.10
2022-12-15T02:29:42.712Z,-7.20
2022-12-15T02:32:37.216Z,-7.30
2022-12-15T02:35:47.307Z,-7.30
2022-12-15T02:38:15.092Z,-7.30
2022-12-15T02:40:43.062Z,-7.30
2022-12-15T02:43:11.751Z,-7.30
2022-12-15T02:46:46.053Z,-7.30
2022-12-15T02:50:12.114Z,-7.30
2022-12-15T02:53:28.926Z,-7.30
2022-12-15T02:57:06.123Z,-7.30
2022-12-15T03:00:01.189Z,-7.40
2022-12-15T03:02:38.105Z,-7.40
2022-12-15T03:05:08.392Z,-7.50
2022-12-15T03:07:36.103Z,-7.50
2022-12-15T03:10:07.834Z,-7.50
2022-12-15T03:12:35.463Z,-7.50
2022-12-15T03:15:03.601Z,-7.50
2022-12-15T03:17:31.268Z,-7.50
2022-12-15T03:19:58.863Z,-7.50
2022-12-15T03:22:26.586Z,-7.50
2022-12-15T03:24:54.408Z,-7.40
2022-12-15T03:27:22.936Z,-7.40
2022-12-15T03:29:50.623Z,-7.20
2022-12-15T03:32:18.275Z,-7.20
2022-12-15T03:34:45.944Z,-7.00
2022-12-15T03:37:13.471Z,-6.80
2022-12-15T03:39:41.108Z,-6.70
2022-12-15T03:42:08.917Z,-6.70
2022-12-15T03:44:36.560Z,-6.70
2022-12-15T03:47:04.220Z,-6.80
2022-12-15T03:49:31.832Z,-6.70
2022-12-15T03:51:59.380Z,-6.80
2022-12-15T03:54:26.973Z,-6.80
2022-12-15T03:56:54.676Z,-6.90
2022-12-15T03:59:22.158Z,-6.90
2022-12-15T04:01:49.960Z,-7.00
2022-12-15T04:04:17.717Z,-7.00
2022-12-15T04:06:45.453Z,-6.90
2022-12-15T04:09:12.970Z,-6.90
2022-12-15T04:11:40.590Z,-6.90
2022-12-15T04:14:09.977Z,-6.90
2022-12-15T04:16:37.658Z,-6.90
2022-12-15T04:19:23.701Z,-7.00
2022-12-15T04:21:51.351Z,-7.00
2022-12-15T04:24:37.652Z,-6.90
2022-12-15T04:27:24.928Z,-6.90
2022-12-15T04:30:11.180Z,-6.90
2022-12-15T04:32:57.563Z,-6.90
2022-12-15T04:35:43.839Z,-6.90
2022-12-15T04:38:37.556Z,-6.90
2022-12-15T04:41:24.812Z,-7.00
2022-12-15T04:44:10.802Z,-7.00
2022-12-15T04:46:56.758Z,-7.00
2022-12-15T04:49:42.796Z,-7.00
2022-12-15T04:52:29.131Z,-7.00
2022-12-15T04:55:15.423Z,-6.90
2022-12-15T04:58:01.782Z,-6.80
2022-12-15T05:00:47.971Z,-6.90
2022-12-15T05:03:34.841Z,-6.90
2022-12-15T05:06:21.226Z,-6.80
2022-12-15T05:09:07.535Z,-6.80
2022-12-15T05:11:53.926Z,-6.60
2022-12-15T05:14:40.298Z,-6.50
2022-12-15T05:17:26.670Z,-6.30
2022-12-15T05:20:12.717Z,-6.30
2022-12-15T05:22:58.958Z,-6.40
2022-12-15T05:25:45.175Z,-6.40
2022-12-15T05:28:31.398Z,-6.40
2022-12-15T05:31:17.742Z,-6.30
2022-12-15T05:33:45.400Z,-6.30
2022-12-15T05:36:12.974Z,-6.30
2022-12-15T05:38:40.803Z,-6.20
2022-12-15T05:41:08.707Z,-6.10
2022-12-15T05:43:36.276Z,-6.00
2022-12-15T05:46:06.041Z,-6.10
2022-12-15T05:48:33.916Z,-6.10
2022-12-15T05:51:19.336Z,-6.20
2022-12-15T05:53:46.933Z,-6.30
2022-12-15T05:56:15.919Z,-6.30
2022-12-15T05:58:45.609Z,-6.30
2022-12-15T06:01:19.797Z,-6.40
2022-12-15T06:03:48.394Z,-6.40
2022-12-15T06:06:16.107Z,-6.30
2022-12-15T06:08:45.351Z,-6.20
2022-12-15T06:11:33.391Z,-6.30
2022-12-15T06:14:06.012Z,-6.30
2022-12-15T06:16:50.515Z,-6.30
2022-12-15T06:19:23.674Z,-6.30
2022-12-15T06:21:54.162Z,-6.30
2022-12-15T06:24:22.537Z,-6.40
2022-12-15T06:26:50.912Z,-6.40
2022-12-15T06:29:20.037Z,-6.40
2022-12-15T06:31:48.230Z,-6.30
2022-12-15T06:34:18.066Z,-6.20
2022-12-15T06:36:46.181Z,-5.80
2022-12-15T06:39:17.367Z,-5.90
2022-12-15T06:41:45.427Z,-6.00
2022-12-15T06:44:16.710Z,-5.90
2022-12-15T06:46:46.232Z,-6.10
2022-12-15T06:49:14.766Z,-6.20
2022-12-15T06:51:44.106Z,-6.20
2022-12-15T06:54:13.118Z,-6.30
2022-12-15T06:56:41.227Z,-6.30
2022-12-15T06:59:10.765Z,-6.20
2022-12-15T07:01:38.752Z,-6.00
2022-12-15T07:04:07.202Z,-5.80
2022-12-15T07:06:38.007Z,-5.80
2022-12-15T07:09:16.215Z,-5.80
2022-12-15T07:11:44.249Z,-5.90
2022-12-15T07:14:11.919Z,-5.70
2022-12-15T07:16:39.607Z,-5.80
2022-12-15T07:19:12.943Z,-5.90
2022-12-15T07:21:41.620Z,-6.00
2022-12-15T07:24:14.316Z,-6.10
2022-12-15T07:26:42.736Z,-6.10
2022-12-15T07:29:12.000Z,-6.10
2022-12-15T07:31:39.905Z,-6.10
2022-12-15T07:34:07.568Z,-6.10
2022-12-15T07:36:35.286Z,-6.20
2022-12-15T07:39:04.912Z,-6.20
2022-12-15T07:41:32.733Z,-6.10
2022-12-15T07:44:00.324Z,-6.10
2022-12-15T07:46:29.229Z,-6.10
2022-12-15T07:48:57.091Z,-6.10
2022-12-15T07:51:24.780Z,-6.20
2022-12-15T07:53:52.914Z,-6.20
2022-12-15T07:56:23.083Z,-6.20
2022-12-15T07:58:52.205Z,-6.10
2022-12-15T08:01:19.845Z,-6.00
2022-12-15T08:03:49.487Z,-6.00
2022-12-15T08:06:17.338Z,-5.80
2022-12-15T08:08:49.896Z,-5.80
2022-12-15T08:11:25.017Z,-5.70
2022-12-15T08:14:02.561Z,-5.70
2022-12-15T08:16:33.417Z,-5.60
2022-12-15T08:19:01.108Z,-5.50
2022-12-15T08:21:29.094Z,-5.50
2022-12-15T08:23:56.804Z,-5.40
2022-12-15T08:26:30.039Z,-5.40
2022-12-15T08:29:24.512Z,-5.40
2022-12-15T08:31:50.711Z,-5.30
2022-12-15T08:34:18.372Z,-5.20
2022-12-15T08:36:45.972Z,-4.90
2022-12-15T08:39:13.873Z,-4.70
2022-12-15T08:41:41.672Z,-4.70
2022-12-15T08:44:09.371Z,-4.60
2022-12-15T08:46:37.035Z,-4.60
2022-12-15T08:49:05.037Z,-4.50
2022-12-15T08:51:34.227Z,-4.60
2022-12-15T08:54:02.888Z,-4.60
2022-12-15T08:56:31.576Z,-4.60
2022-12-15T08:59:03.479Z,-4.70
2022-12-15T09:01:33.467Z,-4.70
2022-12-15T09:04:04.267Z,-4.70
2022-12-15T09:06:36.989Z,-4.80
2022-12-15T09:09:11.560Z,-4.70
2022-12-15T09:11:39.594Z,-4.60
2022-12-15T09:14:08.193Z,-4.60
2022-12-15T09:16:36.248Z,-4.50
2022-12-15T09:19:05.095Z,-4.50
2022-12-15T09:21:32.794Z,-4.50
2022-12-15T09:24:03.818Z,-4.50
2022-12-15T09:26:35.174Z,-4.40
2022-12-15T09:29:03.408Z,-4.40
2022-12-15T09:31:38.267Z,-4.30
2022-12-15T09:34:06.675Z,-4.30
2022-12-15T09:36:34.543Z,-4.20
2022-12-15T09:39:03.141Z,-4.20
2022-12-15T09:41:36.135Z,-4.20
2022-12-15T09:44:23.119Z,-4.20
2022-12-15T09:47:17.767Z,-4.10
2022-12-15T09:50:03.731Z,-4.10
2022-12-15T09:53:00.429Z,-3.90
2022-12-15T09:55:33.354Z,-3.80
2022-12-15T09:59:01.957Z,-3.70
2022-12-15T10:02:01.484Z,-3.60
2022-12-15T10:05:18.654Z,-3.60
2022-12-15T10:07:50.519Z,-3.60
2022-12-15T10:11:17.156Z,-3.60
2022-12-15T10:14:07.560Z,-3.50
2022-12-15T10:17:25.325Z,-3.50
2022-12-15T10:20:31.348Z,-3.40
2022-12-15T10:23:17.389Z,-3.50
2022-12-15T10:26:29.873Z,-3.40
2022-12-15T10:29:43.252Z,-3.40
2022-12-15T10:32:43.036Z,-3.40
2022-12-15T10:35:33.085Z,-3.40
2022-12-15T10:38:22.193Z,-3.30
2022-12-15T10:41:15.498Z,-3.20
2022-12-15T10:43:50.349Z,-3.20
2022-12-15T10:46:32.347Z,-3.20
2022-12-15T10:49:24.531Z,-3.10
2022-12-15T10:52:02.889Z,-3.10
2022-12-15T10:54:48.463Z,-3.10
2022-12-15T10:57:31.785Z,-3.10
2022-12-15T11:00:15.028Z,-3.10
2022-12-15T11:02:43.165Z,-3.10
2022-12-15T11:05:17.352Z,-3.10
2022-12-15T11:08:16.124Z,-3.00
2022-12-15T11:11:16.830Z,-3.10
2022-12-15T11:14:27.530Z,-3.00
2022-12-15T11:16:59.811Z,-3.00
2022-12-15T11:19:58.083Z,-2.90
2022-12-15T11:22:58.641Z,-2.90
2022-12-15T11:25:55.218Z,-2.90
2022-12-15T11:29:02.012Z,-2.90
2022-12-15T11:31:45.371Z,-2.90
2022-12-15T11:34:24.934Z,-2.90
2022-12-15T11:37:41.229Z,-2.80
2022-12-15T11:40:40.704Z,-2.70
2022-12-15T11:44:09.939Z,-2.60
2022-12-15T11:47:03.284Z,-2.60
2022-12-15T11:49:59.151Z,-2.50
2022-12-15T11:53:00.622Z,-2.40
2022-12-15T11:55:43.436Z,-2.40
2022-12-15T11:58:45.095Z,-2.20
2022-12-15T12:02:13.304Z,-2.20
2022-12-15T12:05:24.135Z,-2.20
2022-12-15T12:08:20.212Z,-2.10
2022-12-15T12:11:16.972Z,-2.20
2022-12-15T12:15:02.112Z,-2.20
2022-12-15T12:17:52.025Z,-2.00
2022-12-15T12:20:35.428Z,-1.80
2022-12-15T12:23:28.980Z,-1.80
2022-12-15T12:26:36.917Z,-1.90
2022-12-15T12:29:50.821Z,-2.00
2022-12-15T12:33:26.334Z,-2.00
2022-12-15T12:36:13.298Z,-2.00
2022-12-15T12:38:56.923Z,-2.00
2022-12-15T12:42:25.752Z,-2.00
2022-12-15T12:44:53.648Z,-1.90
2022-12-15T12:47:41.059Z,-1.90
2022-12-15T12:50:25.226Z,-1.80
2022-12-15T12:53:01.165Z,-1.70
2022-12-15T12:55:42.599Z,-1.70
2022-12-15T12:58:42.219Z,-1.70
2022-12-15T13:01:25.423Z,-1.60
2022-12-15T13:04:38.759Z,-1.50
2022-12-15T13:07:43.350Z,-1.50
2022-12-15T13:10:23.519Z,-1.60
2022-12-15T13:12:59.779Z,-1.60
2022-12-15T13:15:30.520Z,-1.60
2022-12-15T13:18:23.386Z,-1.70
2022-12-15T13:20:57.614Z,-1.70
2022-12-15T13:23:40.251Z,-1.70
2022-12-15T13:26:07.932Z,-1.70
2022-12-15T13:28:42.903Z,-1.70
2022-12-15T13:31:22.774Z,-1.60
2022-12-15T13:33:50.439Z,-1.60
2022-12-15T13:36:42.436Z,-1.70
2022-12-15T13:39:12.813Z,-1.70
2022-12-15T13:45:12.285Z,-1.80
2022-12-15T13:47:41.053Z,-1.70
2022-12-15T13:50:36.356Z,-1.70
2022-12-15T13:53:20.282Z,-1.70
2022-12-15T13:56:52.960Z,-1.70
2022-12-15T13:59:33.436Z,-1.70
2022-12-15T14:02:01.429Z,-1.60
2022-12-15T14:04:29.243Z,-1.60
2022-12-15T14:07:02.907Z,-1.60
2022-12-15T14:09:42.310Z,-1.70
2022-12-15T14:12:14.596Z,-1.80
2022-12-15T14:14:51.099Z,-1.60
2022-12-15T14:17:20.603Z,-1.60
2022-12-15T14:19:51.474Z,-1.60
2022-12-15T14:22:30.509Z,-1.70
2022-12-15T14:25:24.218Z,-1.80
2022-12-15T14:27:52.252Z,-1.90
2022-12-15T14:30:33.426Z,-2.10
2022-12-15T14:33:18.612Z,-2.20
2022-12-15T14:35:53.188Z,-2.30
2022-12-15T14:38:36.706Z,-2.40
2022-12-15T14:41:06.484Z,-2.50
2022-12-15T14:43:40.334Z,-2.60
2022-12-15T14:46:17.627Z,-2.70
2022-12-15T14:49:03.203Z,-2.80
2022-12-15T14:51:48.585Z,-2.90
2022-12-15T14:54:51.465Z,-3.00
2022-12-15T14:57:45.061Z,-3.10
2022-12-15T15:00:48.862Z,-3.10
2022-12-15T15:03:20.208Z,-3.10
2022-12-15T15:06:01.233Z,-3.10
2022-12-15T15:08:52.726Z,-3.20
2022-12-15T15:11:35.538Z,-3.30
2022-12-15T15:14:25.761Z,-3.40
2022-12-15T15:17:13.305Z,-3.50
2022-12-15T15:20:29.164Z,-3.50
2022-12-15T15:23:13.297Z,-3.50
2022-12-15T15:26:08.326Z,-3.60
2022-12-15T15:28:45.205Z,-3.70
2022-12-15T15:31:41.379Z,-3.80
2022-12-15T15:34:22.864Z,-3.90
2022-12-15T15:36:50.556Z,-3.90
2022-12-15T15:39:20.407Z,-3.90
2022-12-15T15:41:47.959Z,-3.90
2022-12-15T15:44:16.463Z,-3.90
2022-12-15T15:46:52.755Z,-3.90
2022-12-15T15:49:24.612Z,-4.00
2022-12-15T15:51:52.360Z,-4.10
2022-12-15T15:54:31.771Z,-4.10
2022-12-15T15:56:59.485Z,-4.20
2022-12-15T15:59:29.079Z,-4.30
2022-12-15T16:01:59.257Z,-4.30
2022-12-15T16:04:27.676Z,-4.30
2022-12-15T16:06:55.436Z,-4.40
2022-12-15T16:09:25.690Z,-4.30
2022-12-15T16:11:53.832Z,-4.40
2022-12-15T16:14:22.096Z,-4.50
2022-12-15T16:16:49.869Z,-4.60
2022-12-15T16:19:17.675Z,-4.50
2022-12-15T16:21:45.517Z,-4.40
2022-12-15T16:24:19.875Z,-4.30
2022-12-15T16:26:51.754Z,-4.30
2022-12-15T16:29:21.999Z,-4.40
2022-12-15T16:31:50.047Z,-4.50
2022-12-15T16:34:19.321Z,-4.50
2022-12-15T16:36:47.677Z,-4.60
2022-12-15T16:39:30.613Z,-4.60
2022-12-15T16:41:59.244Z,-4.60
2022-12-15T16:44:29.632Z,-4.60
2022-12-15T16:46:59.125Z,-4.70
2022-12-15T16:49:35.145Z,-4.80
2022-12-15T16:52:28.735Z,-4.90
2022-12-15T16:54:59.892Z,-4.90
2022-12-15T16:57:31.630Z,-4.90
2022-12-15T17:00:02.679Z,-4.90
2022-12-15T17:02:34.728Z,-4.90
2022-12-15T17:05:03.236Z,-4.90
2022-12-15T17:07:30.888Z,-4.90
2022-12-15T17:09:59.200Z,-4.90
2022-12-15T17:12:30.200Z,-4.90
2022-12-15T17:15:03.094Z,-5.00
2022-12-15T17:17:33.999Z,-5.00
2022-12-15T17:20:28.568Z,-5.00
2022-12-15T17:23:23.175Z,-5.10
2022-12-15T17:26:20.999Z,-5.10
2022-12-15T17:28:44.398Z,-5.30
2022-12-15T17:31:23.519Z,-5.30
2022-12-15T17:33:51.707Z,-5.30
2022-12-15T17:36:31.017Z,-5.30
2022-12-15T17:39:07.912Z,-5.40
2022-12-15T17:44:38.822Z,-5.50
2022-12-15T17:47:11.112Z,-5.50
2022-12-15T17:49:42.656Z,-5.40
2022-12-15T17:52:35.346Z,-5.30
2022-12-15T17:55:34.794Z,-5.30
2022-12-15T17:58:25.921Z,-5.40
2022-12-15T18:00:59.526Z,-5.40
2022-12-15T18:03:31.104Z,-5.40
2022-12-15T18:06:02.350Z,-5.50
2022-12-15T18:08:37.622Z,-5.40
2022-12-15T18:11:15.748Z,-5.40
2022-12-15T18:13:47.141Z,-5.30
2022-12-15T18:16:18.570Z,-5.30
2022-12-15T18:18:50.189Z,-5.20
2022-12-15T18:21:21.666Z,-5.30
2022-12-15T18:24:00.759Z,-5.20
2022-12-15T18:26:39.360Z,-5.20
2022-12-15T18:29:18.299Z,-5.30
2022-12-15T18:31:50.713Z,-5.40
2022-12-15T18:34:23.632Z,-5.40
2022-12-15T18:36:51.654Z,-5.40
2022-12-15T18:39:24.312Z,-5.50
2022-12-15T18:41:57.353Z,-5.50
2022-12-15T18:44:31.596Z,-5.50
2022-12-15T18:46:59.277Z,-5.50
2022-12-15T18:49:27.628Z,-5.50
2022-12-15T18:51:58.308Z,-5.60
2022-12-15T18:54:26.719Z,-5.60
2022-12-15T18:56:54.826Z,-5.70
2022-12-15T18:59:22.896Z,-5.80
2022-12-15T19:01:50.979Z,-5.80
2022-12-15T19:04:18.881Z,-5.90
2022-12-15T19:06:46.667Z,-5.80
2022-12-15T19:09:35.824Z,-5.80
2022-12-15T19:12:20.078Z,-5.80
2022-12-15T19:14:53.037Z,-5.80
2022-12-15T19:17:43.390Z,-5.90
2022-12-15T19:20:39.241Z,-5.90
2022-12-15T19:23:07.964Z,-5.70
2022-12-15T19:25:36.524Z,-5.50
2022-12-15T19:28:07.071Z,-5.40
2022-12-15T19:30:40.232Z,-5.40
2022-12-15T19:33:16.812Z,-5.40
2022-12-15T19:35:51.209Z,-5.40
2022-12-15T19:38:33.140Z,-5.50
2022-12-15T19:41:01.180Z,-5.50
2022-12-15T19:43:28.975Z,-5.60
2022-12-15T19:45:57.916Z,-5.70
2022-12-15T19:48:25.556Z,-5.70
2022-12-15T19:50:54.606Z,-5.80
2022-12-15T19:53:30.128Z,-5.80
2022-12-15T19:56:03.656Z,-5.90
2022-12-15T19:58:37.076Z,-6.00
2022-12-15T20:01:17.908Z,-6.10
2022-12-15T20:03:52.292Z,-6.10
2022-12-15T20:06:27.327Z,-6.10
2022-12-15T20:08:57.007Z,-6.00
2022-12-15T20:11:31.724Z,-6.00
2022-12-15T20:14:01.696Z,-6.00
2022-12-15T20:16:29.364Z,-6.00
2022-12-15T20:18:56.972Z,-6.00
2022-12-15T20:21:34.560Z,-6.00
2022-12-15T20:24:19.478Z,-6.10
2022-12-15T20:26:47.979Z,-6.20
2022-12-15T20:29:31.865Z,-6.30
2022-12-15T20:32:00.238Z,-6.20
2022-12-15T20:34:27.936Z,-6.20
2022-12-15T20:36:55.693Z,-6.20
2022-12-15T20:39:30.726Z,-6.20
2022-12-15T20:41:58.604Z,-6.20
2022-12-15T20:44:26.351Z,-6.30
2022-12-15T20:46:54.848Z,-6.30
2022-12-15T20:49:24.225Z,-6.30
2022-12-15T20:51:52.912Z,-6.30
2022-12-15T20:54:23.660Z,-6.30
2022-12-15T20:56:51.854Z,-6.30
2022-12-15T20:59:20.043Z,-6.30
2022-12-15T21:01:47.818Z,-6.40
2022-12-15T21:04:30.508Z,-6.50
2022-12-15T21:06:58.222Z,-6.50
2022-12-15T21:09:25.963Z,-6.50
2022-12-15T21:11:55.249Z,-6.50
2022-12-15T21:14:25.071Z,-6.50
2022-12-15T21:16:54.132Z,-6.60
2022-12-15T21:19:22.863Z,-6.60
2022-12-15T21:21:54.939Z,-6.60
2022-12-15T21:24:28.827Z,-6.70
2022-12-15T21:26:56.967Z,-6.80
2022-12-15T21:29:29.086Z,-6.70
2022-12-15T21:31:57.411Z,-6.60
2022-12-15T21:34:25.653Z,-6.60
2022-12-15T21:36:55.592Z,-6.60
2022-12-15T21:39:37.207Z,-6.70
2022-12-15T21:42:20.983Z,-6.80
2022-12-15T21:44:50.404Z,-6.70
2022-12-15T21:47:47.637Z,-6.70
2022-12-15T21:50:18.165Z,-6.70
2022-12-15T21:52:47.752Z,-6.60
2022-12-15T21:55:24.328Z,-6.60
2022-12-15T21:57:52.500Z,-6.70
2022-12-15T22:00:23.612Z,-6.60
2022-12-15T22:02:54.266Z,-6.40
2022-12-15T22:05:32.565Z,-6.40
2022-12-15T22:08:17.988Z,-6.40
2022-12-15T22:10:50.330Z,-6.40
2022-12-15T22:13:24.380Z,-6.30
2022-12-15T22:15:52.204Z,-6.20
2022-12-15T22:18:20.084Z,-6.20
2022-12-15T22:20:50.739Z,-6.20
2022-12-15T22:23:20.659Z,-6.40
2022-12-15T22:25:56.372Z,-6.50
2022-12-15T22:28:28.723Z,-6.60
2022-12-15T22:30:57.283Z,-6.70
2022-12-15T22:33:28.218Z,-6.70
2022-12-15T22:35:56.916Z,-6.80
2022-12-15T22:38:25.304Z,-6.90
2022-12-15T22:40:58.644Z,-6.80
2022-12-15T22:43:44.581Z,-6.80
2022-12-15T22:46:15.708Z,-6.80
2022-12-15T22:48:47.684Z,-6.80
2022-12-15T22:51:18.999Z,-6.80
2022-12-15T22:53:46.867Z,-6.80
2022-12-15T22:56:31.497Z,-6.90
2022-12-15T22:59:12.884Z,-6.90
2022-12-15T23:01:40.834Z,-6.90
2022-12-15T23:04:08.594Z,-7.00
2022-12-15T23:06:36.203Z,-7.00
2022-12-15T23:09:05.185Z,-7.10
2022-12-15T23:11:39.620Z,-7.10
2022-12-15T23:14:16.892Z,-7.20
2022-12-15T23:16:46.791Z,-7.30
2022-12-15T23:19:23.988Z,-7.30
2022-12-15T23:21:52.418Z,-7.30
2022-12-15T23:24:20.535Z,-7.30
2022-12-15T23:26:48.141Z,-7.20
2022-12-15T23:29:15.869Z,-7.30
2022-12-15T23:31:43.620Z,-7.30
2022-12-15T23:34:11.735Z,-7.30
2022-12-15T23:36:39.614Z,-7.30
2022-12-15T23:39:07.223Z,-7.20
2022-12-15T23:41:37.518Z,-7.10
2022-12-15T23:44:08.424Z,-7.10
2022-12-15T23:46:37.573Z,-7.10
2022-12-15T23:49:07.620Z,-7.10
2022-12-15T23:51:36.519Z,-7.20
2022-12-15T23:54:05.802Z,-7.20
2022-12-15T23:56:34.750Z,-7.10
2022-12-15T23:59:03.707Z,-7.10
